Detall de PIREP

Printer-friendly versionPDF version

[2011/05/22 16:29:00]
Flight IATA:CT0001
Pilot Number:041
Company ICAO:CAT
Aircraft Type:F28/A
PAX:48
Departing Airport: LEVC
Destination Airport: LEMH
Alternate Airport:LEPA
Online: VATSIM
Route:RIKOS A33 MJV
Flight Level:F120
No Slew and time accel
No pause
Crash detect
Detect pilot in Cockpit between each 30 and 45 minutes
16:29 Zero fuel Weight: 51036 Lbs, Fuel Weight: 6216 Lbs
16:29 VATSIM:LEVC 221600Z 12007KT 9999 FEW030 26/07 Q1020 NOSIG
16:29 VATSIM:LEMH 221600Z 01014KT 340V040 CAVOK 24/14 Q1020
16:30 VOICE CATALONIAN
16:30 Parking Brakes off
16:46 Take-off
16:46 Take off Weight: 56607 Lbs
16:46 Wind: 119º @ 005 Knots Heading: 116º
16:46 POS N39º 29´ 15´´ W000º 28´ 37´´
16:46 Gear Up: 178 Knots
16:46 Flaps:1 at 179 Knots
16:46 Flaps:0 at 254 Knots
16:51 TOC
16:51 Fuel Weight: 4855 Lb
17:01 Wind:140º@004 Knots Heading: 091º Ground Speed: 344 Knots Altitude 12201 ft
17:06 TOD
17:06 Fuel Weight: 3550 Lb
17:16 Wind:015º@013 Knots Heading: 088º Ground Speed: 281 Knots Altitude 10190 ft
17:30 Flaps:1 at 233 Knots
17:30 Flaps:2 at 234 Knots
17:31 Wind:009º@014 Knots Heading: 085º Ground Speed: 237 Knots Altitude 2086 ft
17:31 Flaps:3 at 239 Knots
17:31 Gear Down: 237 Knots
17:31 Gear Up: 223 Knots
17:31 Flaps:4 at 188 Knots
17:32 Gear Down: 138 Knots
17:33 TouchDown:Rate -261 ft/min Speed: 112 Knots
17:34 VATSIM:LEMH 221700Z 01014KT 330V030 CAVOK 23/15 Q1020
17:34 Land
17:34 Wind:009º@014 Knots
17:34 Heading: 011º
17:34 Flight Duration: 00:48
17:34 Landing Weight: 53158 Lbs
17:34 POS N39º 51´ 53´´ E004º 13´ 08´´
17:37 Parking brakes on
17:37 Block to Block Duration: 01:07
17:37 Final Fuel: 1999 Lbls
17:37 Spent Fuel: 4217 Lbls
17:37 Flight Length: 227 NM
17:37 TOD Land Length: 118 NM

Exportar CSV

Powered by Drupal - Modified by Danger4k